LVFPM SABE-SAAR
Flight info
| Callsign | LVFPM |
|---|---|
| Flight time | 1h 0m |
| Altitude | 6000 |
| Route | ATOVO4B ATOVO W5 ESKON |
| Aircraft | BE58/L-SDFGRY/C |
Departure
| Time | 2026-05-07 19:00 |
|---|---|
| Airport | Aeroparque Jorge Newbery (SABE) |
Arrival
| Time | 2026-05-07 20:00 |
|---|---|
| Airport | Rosario Islas Malvinas International Airport (SAAR) |
| Time | Latitude | Longitude | Altitude | Speed | Heading |
|---|---|---|---|---|---|
| 2026-05-07 18:44 | -34.56447 | -58.40963 | 22 ft | 0 kts | 214° |
| 2026-05-07 18:55 | -34.56451 | -58.40967 | 22 ft | 2 kts | 215° |
| 2026-05-07 18:55 | -34.56478 | -58.40977 | 22 ft | 5 kts | 141° |
| 2026-05-07 18:55 | -34.56509 | -58.40915 | 22 ft | 10 kts | 124° |
| 2026-05-07 18:56 | -34.56492 | -58.40825 | 22 ft | 11 kts | 69° |
| 2026-05-07 18:56 | -34.56471 | -58.40772 | 22 ft | 0 kts | 66° |
| 2026-05-07 18:56 | -34.56471 | -58.40773 | 22 ft | 0 kts | 66° |
| 2026-05-07 18:58 | -34.56471 | -58.40772 | 22 ft | 0 kts | 66° |
| 2026-05-07 18:58 | -34.56460 | -58.40742 | 22 ft | 6 kts | 66° |
| 2026-05-07 18:58 | -34.56422 | -58.40703 | 22 ft | 8 kts | 348° |
| 2026-05-07 18:59 | -34.56374 | -58.40767 | 22 ft | 15 kts | 303° |
| 2026-05-07 18:59 | -34.56189 | -58.41098 | 22 ft | 82 kts | 302° |
| 2026-05-07 18:59 | -34.55786 | -58.41831 | 158 ft | 109 kts | 302° |
| 2026-05-07 18:59 | -34.55274 | -58.42654 | 447 ft | 127 kts | 303° |
| 2026-05-07 19:00 | -34.54743 | -58.43577 | 880 ft | 130 kts | 301° |
| 2026-05-07 19:00 | -34.53902 | -58.44134 | 1368 ft | 140 kts | 348° |
| 2026-05-07 19:00 | -34.52908 | -58.43731 | 1813 ft | 153 kts | 28° |
| 2026-05-07 19:00 | -34.52006 | -58.42878 | 2233 ft | 156 kts | 32° |
| 2026-05-07 19:01 | -34.51132 | -58.42016 | 2625 ft | 158 kts | 31° |
| 2026-05-07 19:01 | -34.50223 | -58.41132 | 2987 ft | 161 kts | 32° |
| 2026-05-07 19:01 | -34.49300 | -58.40230 | 3372 ft | 163 kts | 31° |
| 2026-05-07 19:01 | -34.48367 | -58.39307 | 3762 ft | 163 kts | 32° |
| 2026-05-07 19:02 | -34.47439 | -58.38397 | 4154 ft | 162 kts | 32° |
| 2026-05-07 19:02 | -34.46533 | -58.37512 | 4530 ft | 161 kts | 33° |
| 2026-05-07 19:02 | -34.45624 | -58.36621 | 4916 ft | 159 kts | 32° |
| 2026-05-07 19:02 | -34.44696 | -58.35717 | 5292 ft | 159 kts | 33° |
| 2026-05-07 19:03 | -34.43789 | -58.34838 | 5637 ft | 159 kts | 32° |
| 2026-05-07 19:03 | -34.42864 | -58.33953 | 5938 ft | 161 kts | 32° |
| 2026-05-07 19:03 | -34.41814 | -58.33166 | 5942 ft | 172 kts | 7° |
| 2026-05-07 19:03 | -34.40579 | -58.33364 | 5871 ft | 171 kts | 328° |
| 2026-05-07 19:04 | -34.39450 | -58.34158 | 5875 ft | 175 kts | 322° |
| 2026-05-07 19:04 | -34.38329 | -58.35047 | 5789 ft | 183 kts | 321° |
| 2026-05-07 19:04 | -34.37184 | -58.35979 | 5701 ft | 186 kts | 320° |
| 2026-05-07 19:04 | -34.36030 | -58.36930 | 5660 ft | 186 kts | 321° |
| 2026-05-07 19:05 | -34.34890 | -58.37871 | 5665 ft | 184 kts | 321° |
| 2026-05-07 19:05 | -34.33763 | -58.38802 | 5667 ft | 183 kts | 320° |
| 2026-05-07 19:05 | -34.32637 | -58.39731 | 5663 ft | 183 kts | 320° |
| 2026-05-07 19:05 | -34.31513 | -58.40660 | 5668 ft | 183 kts | 320° |
| 2026-05-07 19:06 | -34.30404 | -58.41577 | 5674 ft | 183 kts | 320° |
| 2026-05-07 19:06 | -34.28170 | -58.43420 | 5672 ft | 184 kts | 320° |
| 2026-05-07 19:06 | -34.27070 | -58.44328 | 5664 ft | 184 kts | 320° |
| 2026-05-07 19:07 | -34.25979 | -58.45260 | 5662 ft | 181 kts | 313° |
| 2026-05-07 19:07 | -34.25256 | -58.46543 | 5661 ft | 176 kts | 294° |
| 2026-05-07 19:07 | -34.24763 | -58.47924 | 5666 ft | 176 kts | 289° |
| 2026-05-07 19:07 | -34.24330 | -58.49356 | 5661 ft | 176 kts | 287° |
| 2026-05-07 19:08 | -34.23917 | -58.50811 | 5665 ft | 175 kts | 287° |
| 2026-05-07 19:08 | -34.23525 | -58.52220 | 5655 ft | 175 kts | 286° |
| 2026-05-07 19:08 | -34.23126 | -58.53672 | 5671 ft | 174 kts | 286° |
| 2026-05-07 19:08 | -34.22731 | -58.55107 | 5666 ft | 174 kts | 286° |
| 2026-05-07 19:09 | -34.22344 | -58.56520 | 5667 ft | 175 kts | 287° |
| 2026-05-07 19:09 | -34.21960 | -58.57919 | 5668 ft | 176 kts | 287° |
| 2026-05-07 19:09 | -34.21559 | -58.59376 | 5662 ft | 176 kts | 286° |
| 2026-05-07 19:09 | -34.21153 | -58.60853 | 5661 ft | 175 kts | 286° |
| 2026-05-07 19:10 | -34.20771 | -58.62243 | 5660 ft | 176 kts | 287° |
| 2026-05-07 19:10 | -34.20381 | -58.63658 | 5665 ft | 175 kts | 286° |
| 2026-05-07 19:10 | -34.19997 | -58.65052 | 5668 ft | 175 kts | 286° |
| 2026-05-07 19:10 | -34.19611 | -58.66456 | 5664 ft | 175 kts | 287° |
| 2026-05-07 19:11 | -34.19218 | -58.67880 | 5670 ft | 176 kts | 287° |
| 2026-05-07 19:11 | -34.18811 | -58.69352 | 5662 ft | 176 kts | 286° |
| 2026-05-07 19:11 | -34.18399 | -58.70849 | 5665 ft | 176 kts | 287° |
| 2026-05-07 19:11 | -34.17987 | -58.72340 | 5666 ft | 176 kts | 287° |
| 2026-05-07 19:12 | -34.17580 | -58.73814 | 5677 ft | 175 kts | 287° |
| 2026-05-07 19:12 | -34.17171 | -58.75292 | 5681 ft | 176 kts | 287° |
| 2026-05-07 19:12 | -34.16760 | -58.76776 | 5678 ft | 177 kts | 287° |
| 2026-05-07 19:12 | -34.16345 | -58.78268 | 5680 ft | 177 kts | 288° |
| 2026-05-07 19:13 | -34.15932 | -58.79748 | 5677 ft | 177 kts | 288° |
| 2026-05-07 19:13 | -34.15519 | -58.81233 | 5684 ft | 177 kts | 287° |
| 2026-05-07 19:13 | -34.15108 | -58.82711 | 5678 ft | 177 kts | 287° |
| 2026-05-07 19:13 | -34.14700 | -58.84181 | 5682 ft | 178 kts | 287° |
| 2026-05-07 19:14 | -34.14284 | -58.85682 | 5683 ft | 178 kts | 287° |
| 2026-05-07 19:14 | -34.13869 | -58.87174 | 5682 ft | 177 kts | 287° |
| 2026-05-07 19:14 | -34.13448 | -58.88690 | 5679 ft | 177 kts | 287° |
| 2026-05-07 19:14 | -34.13032 | -58.90184 | 5673 ft | 176 kts | 287° |
| 2026-05-07 19:15 | -34.12622 | -58.91660 | 5665 ft | 176 kts | 287° |
| 2026-05-07 19:15 | -34.12209 | -58.93144 | 5660 ft | 176 kts | 287° |
| 2026-05-07 19:15 | -34.11798 | -58.94625 | 5666 ft | 176 kts | 287° |
| 2026-05-07 19:15 | -34.11377 | -58.96133 | 5668 ft | 176 kts | 287° |
| 2026-05-07 19:16 | -34.10963 | -58.97621 | 5674 ft | 176 kts | 287° |
| 2026-05-07 19:16 | -34.10544 | -58.99126 | 5670 ft | 177 kts | 287° |
| 2026-05-07 19:16 | -34.10125 | -59.00628 | 5668 ft | 177 kts | 287° |
| 2026-05-07 19:16 | -34.09703 | -59.02139 | 5670 ft | 177 kts | 287° |
| 2026-05-07 19:17 | -34.09279 | -59.03656 | 5673 ft | 177 kts | 287° |
| 2026-05-07 19:17 | -34.08861 | -59.05151 | 5671 ft | 177 kts | 287° |
| 2026-05-07 19:17 | -34.08448 | -59.06630 | 5674 ft | 177 kts | 287° |
| 2026-05-07 19:17 | -34.08038 | -59.08097 | 5671 ft | 177 kts | 286° |
| 2026-05-07 19:18 | -34.07623 | -59.09581 | 5673 ft | 178 kts | 287° |
| 2026-05-07 19:18 | -34.07209 | -59.11057 | 5680 ft | 176 kts | 286° |
| 2026-05-07 19:18 | -34.06795 | -59.12538 | 5687 ft | 176 kts | 287° |
| 2026-05-07 19:18 | -34.06383 | -59.14007 | 5688 ft | 175 kts | 287° |
| 2026-05-07 19:19 | -34.05817 | -59.15410 | 5697 ft | 178 kts | 303° |
| 2026-05-07 19:19 | -34.04973 | -59.16661 | 5695 ft | 180 kts | 306° |
| 2026-05-07 19:19 | -34.04117 | -59.17896 | 5692 ft | 181 kts | 305° |
| 2026-05-07 19:19 | -34.03267 | -59.19122 | 5687 ft | 181 kts | 305° |
| 2026-05-07 19:20 | -34.02412 | -59.20353 | 5686 ft | 181 kts | 306° |
| 2026-05-07 19:20 | -34.01570 | -59.21569 | 5687 ft | 181 kts | 305° |
| 2026-05-07 19:20 | -34.00723 | -59.22789 | 5684 ft | 181 kts | 305° |
| 2026-05-07 19:20 | -33.99879 | -59.24007 | 5683 ft | 181 kts | 305° |
| 2026-05-07 19:21 | -33.99028 | -59.25232 | 5682 ft | 181 kts | 305° |
| 2026-05-07 19:21 | -33.98183 | -59.26449 | 5681 ft | 181 kts | 305° |
| 2026-05-07 19:21 | -33.97353 | -59.27645 | 5676 ft | 182 kts | 305° |
| 2026-05-07 19:21 | -33.96510 | -59.28857 | 5673 ft | 182 kts | 305° |
| 2026-05-07 19:22 | -33.95661 | -59.30079 | 5673 ft | 182 kts | 305° |
| 2026-05-07 19:22 | -33.94806 | -59.31308 | 5675 ft | 182 kts | 305° |
| 2026-05-07 19:22 | -33.93952 | -59.32537 | 5678 ft | 182 kts | 304° |
| 2026-05-07 19:22 | -33.93113 | -59.33745 | 5681 ft | 182 kts | 305° |
| 2026-05-07 19:23 | -33.92261 | -59.34967 | 5683 ft | 182 kts | 304° |
| 2026-05-07 19:23 | -33.91417 | -59.36179 | 5683 ft | 182 kts | 304° |
| 2026-05-07 19:23 | -33.90561 | -59.37410 | 5682 ft | 183 kts | 304° |
| 2026-05-07 19:23 | -33.89727 | -59.38609 | 5682 ft | 183 kts | 305° |
| 2026-05-07 19:24 | -33.88891 | -59.39807 | 5686 ft | 183 kts | 304° |
| 2026-05-07 19:24 | -33.88053 | -59.41008 | 5691 ft | 182 kts | 304° |
| 2026-05-07 19:24 | -33.87220 | -59.42205 | 5691 ft | 182 kts | 305° |
| 2026-05-07 19:24 | -33.86389 | -59.43395 | 5691 ft | 182 kts | 304° |
| 2026-05-07 19:25 | -33.85560 | -59.44582 | 5692 ft | 182 kts | 304° |
| 2026-05-07 19:25 | -33.84712 | -59.45797 | 5691 ft | 183 kts | 304° |
| 2026-05-07 19:25 | -33.83859 | -59.47018 | 5693 ft | 184 kts | 303° |
| 2026-05-07 19:25 | -33.82998 | -59.48252 | 5692 ft | 184 kts | 303° |
| 2026-05-07 19:26 | -33.82133 | -59.49490 | 5692 ft | 184 kts | 304° |
| 2026-05-07 19:26 | -33.81282 | -59.50709 | 5691 ft | 184 kts | 304° |
| 2026-05-07 19:26 | -33.80424 | -59.51935 | 5692 ft | 184 kts | 304° |
| 2026-05-07 19:26 | -33.79577 | -59.53146 | 5688 ft | 184 kts | 304° |
| 2026-05-07 19:27 | -33.78713 | -59.54382 | 5681 ft | 184 kts | 304° |
| 2026-05-07 19:27 | -33.77853 | -59.55610 | 5677 ft | 184 kts | 303° |
| 2026-05-07 19:27 | -33.76993 | -59.56838 | 5674 ft | 185 kts | 304° |
| 2026-05-07 19:27 | -33.76129 | -59.58072 | 5672 ft | 184 kts | 303° |
| 2026-05-07 19:28 | -33.75262 | -59.59310 | 5674 ft | 184 kts | 303° |
| 2026-05-07 19:28 | -33.74398 | -59.60542 | 5675 ft | 185 kts | 304° |
| 2026-05-07 19:28 | -33.73540 | -59.61767 | 5676 ft | 185 kts | 304° |
| 2026-05-07 19:28 | -33.72673 | -59.63002 | 5678 ft | 185 kts | 304° |
| 2026-05-07 19:29 | -33.71796 | -59.64251 | 5681 ft | 184 kts | 304° |
| 2026-05-07 19:29 | -33.70937 | -59.65476 | 5687 ft | 185 kts | 304° |
| 2026-05-07 19:29 | -33.70076 | -59.66701 | 5689 ft | 185 kts | 304° |
| 2026-05-07 19:29 | -33.69195 | -59.67955 | 5689 ft | 186 kts | 304° |
| 2026-05-07 19:30 | -33.68326 | -59.69190 | 5690 ft | 187 kts | 304° |
| 2026-05-07 19:30 | -33.67439 | -59.70448 | 5690 ft | 187 kts | 303° |
| 2026-05-07 19:30 | -33.66559 | -59.71698 | 5694 ft | 187 kts | 303° |
| 2026-05-07 19:30 | -33.65678 | -59.72948 | 5698 ft | 187 kts | 303° |
| 2026-05-07 19:31 | -33.64811 | -59.74178 | 5698 ft | 187 kts | 303° |
| 2026-05-07 19:31 | -33.63931 | -59.75428 | 5698 ft | 188 kts | 303° |
| 2026-05-07 19:31 | -33.63051 | -59.76675 | 5698 ft | 187 kts | 304° |
| 2026-05-07 19:31 | -33.62166 | -59.77928 | 5699 ft | 188 kts | 303° |
| 2026-05-07 19:32 | -33.61274 | -59.79193 | 5700 ft | 188 kts | 304° |
| 2026-05-07 19:32 | -33.60390 | -59.80445 | 5703 ft | 188 kts | 303° |
| 2026-05-07 19:32 | -33.59509 | -59.81691 | 5703 ft | 188 kts | 303° |
| 2026-05-07 19:32 | -33.58626 | -59.82941 | 5704 ft | 189 kts | 303° |
| 2026-05-07 19:33 | -33.57731 | -59.84208 | 5702 ft | 189 kts | 303° |
| 2026-05-07 19:33 | -33.56846 | -59.85458 | 5702 ft | 189 kts | 303° |
| 2026-05-07 19:33 | -33.55969 | -59.86699 | 5697 ft | 189 kts | 303° |
| 2026-05-07 19:33 | -33.55084 | -59.87949 | 5695 ft | 189 kts | 303° |
| 2026-05-07 19:34 | -33.54197 | -59.89202 | 5692 ft | 189 kts | 303° |
| 2026-05-07 19:34 | -33.53336 | -59.90419 | 5686 ft | 189 kts | 303° |
| 2026-05-07 19:34 | -33.52465 | -59.91648 | 5690 ft | 189 kts | 303° |
| 2026-05-07 19:34 | -33.51582 | -59.92894 | 5694 ft | 189 kts | 303° |
| 2026-05-07 19:35 | -33.50684 | -59.94162 | 5699 ft | 189 kts | 303° |
| 2026-05-07 19:35 | -33.49794 | -59.95417 | 5701 ft | 189 kts | 303° |
| 2026-05-07 19:35 | -33.48884 | -59.96699 | 5703 ft | 189 kts | 303° |
| 2026-05-07 19:35 | -33.47990 | -59.97960 | 5706 ft | 189 kts | 303° |
| 2026-05-07 19:36 | -33.47088 | -59.99230 | 5706 ft | 190 kts | 303° |
| 2026-05-07 19:36 | -33.46188 | -60.00498 | 5708 ft | 190 kts | 303° |
| 2026-05-07 19:36 | -33.45277 | -60.01779 | 5709 ft | 189 kts | 303° |
| 2026-05-07 19:36 | -33.44384 | -60.03036 | 5709 ft | 189 kts | 302° |
| 2026-05-07 19:37 | -33.43491 | -60.04292 | 5710 ft | 189 kts | 302° |
| 2026-05-07 19:37 | -33.42606 | -60.05537 | 5710 ft | 189 kts | 302° |
| 2026-05-07 19:37 | -33.41719 | -60.06786 | 5712 ft | 189 kts | 302° |
| 2026-05-07 19:37 | -33.40831 | -60.08034 | 5716 ft | 190 kts | 302° |
| 2026-05-07 19:38 | -33.39935 | -60.09292 | 5719 ft | 190 kts | 303° |
| 2026-05-07 19:38 | -33.39020 | -60.10578 | 5713 ft | 190 kts | 303° |
| 2026-05-07 19:38 | -33.38117 | -60.11845 | 5710 ft | 190 kts | 303° |
| 2026-05-07 19:38 | -33.37204 | -60.13127 | 5712 ft | 190 kts | 302° |
| 2026-05-07 19:39 | -33.36296 | -60.14400 | 5717 ft | 190 kts | 303° |
| 2026-05-07 19:39 | -33.35368 | -60.15701 | 5721 ft | 189 kts | 303° |
| 2026-05-07 19:39 | -33.34459 | -60.16975 | 5724 ft | 189 kts | 303° |
| 2026-05-07 19:39 | -33.33848 | -60.17832 | 5725 ft | 190 kts | 303° |
| 2026-05-07 19:40 | -33.32635 | -60.19532 | 5722 ft | 190 kts | 303° |
| 2026-05-07 19:40 | -33.31727 | -60.20802 | 5715 ft | 190 kts | 303° |
| 2026-05-07 19:40 | -33.30813 | -60.22082 | 5716 ft | 190 kts | 302° |
| 2026-05-07 19:40 | -33.29908 | -60.23349 | 5722 ft | 190 kts | 302° |
| 2026-05-07 19:41 | -33.29001 | -60.24617 | 5723 ft | 190 kts | 302° |
| 2026-05-07 19:41 | -33.28102 | -60.25876 | 5725 ft | 190 kts | 302° |
| 2026-05-07 19:41 | -33.27205 | -60.27129 | 5726 ft | 190 kts | 302° |
| 2026-05-07 19:41 | -33.26316 | -60.28373 | 5729 ft | 190 kts | 302° |
| 2026-05-07 19:42 | -33.25444 | -60.29590 | 5725 ft | 190 kts | 302° |
| 2026-05-07 19:42 | -33.24564 | -60.30819 | 5724 ft | 191 kts | 302° |
| 2026-05-07 19:42 | -33.23690 | -60.32039 | 5725 ft | 190 kts | 302° |
| 2026-05-07 19:42 | -33.22828 | -60.33243 | 5724 ft | 190 kts | 302° |
| 2026-05-07 19:43 | -33.21957 | -60.34465 | 5728 ft | 190 kts | 302° |
| 2026-05-07 19:43 | -33.21081 | -60.35697 | 5731 ft | 190 kts | 301° |
| 2026-05-07 19:43 | -33.20175 | -60.36975 | 5729 ft | 192 kts | 306° |
| 2026-05-07 19:43 | -33.18930 | -60.37902 | 5730 ft | 202 kts | 324° |
| 2026-05-07 19:44 | -33.17631 | -60.38689 | 5727 ft | 202 kts | 325° |
| 2026-05-07 19:44 | -33.16300 | -60.39487 | 5728 ft | 202 kts | 325° |
| 2026-05-07 19:44 | -33.14977 | -60.40279 | 5734 ft | 202 kts | 325° |
| 2026-05-07 19:44 | -33.13674 | -60.41059 | 5736 ft | 202 kts | 325° |
| 2026-05-07 19:45 | -33.12386 | -60.41829 | 5744 ft | 202 kts | 325° |
| 2026-05-07 19:45 | -33.11112 | -60.42591 | 5750 ft | 202 kts | 324° |
| 2026-05-07 19:45 | -33.09806 | -60.43373 | 5754 ft | 203 kts | 325° |
| 2026-05-07 19:45 | -33.08531 | -60.44134 | 5752 ft | 203 kts | 325° |
| 2026-05-07 19:46 | -33.07251 | -60.44899 | 5705 ft | 205 kts | 325° |
| 2026-05-07 19:46 | -33.05950 | -60.45676 | 5590 ft | 209 kts | 325° |
| 2026-05-07 19:46 | -33.04617 | -60.46471 | 5474 ft | 212 kts | 325° |
| 2026-05-07 19:46 | -33.03272 | -60.47273 | 5364 ft | 213 kts | 324° |
| 2026-05-07 19:47 | -33.01901 | -60.48092 | 5253 ft | 214 kts | 325° |
| 2026-05-07 19:47 | -33.00550 | -60.48897 | 5148 ft | 215 kts | 324° |
| 2026-05-07 19:47 | -32.99200 | -60.49702 | 5055 ft | 215 kts | 325° |
| 2026-05-07 19:47 | -32.97862 | -60.50496 | 4941 ft | 209 kts | 324° |
| 2026-05-07 19:48 | -32.96568 | -60.51266 | 4817 ft | 204 kts | 324° |
| 2026-05-07 19:48 | -32.95272 | -60.52039 | 4674 ft | 201 kts | 324° |
| 2026-05-07 19:48 | -32.94000 | -60.52797 | 4542 ft | 200 kts | 324° |
| 2026-05-07 19:48 | -32.92742 | -60.53547 | 4408 ft | 199 kts | 324° |
| 2026-05-07 19:49 | -32.91479 | -60.54298 | 4270 ft | 198 kts | 324° |
| 2026-05-07 19:49 | -32.90211 | -60.55052 | 4127 ft | 198 kts | 325° |
| 2026-05-07 19:49 | -32.88950 | -60.55801 | 3979 ft | 198 kts | 324° |
| 2026-05-07 19:49 | -32.87699 | -60.56545 | 3832 ft | 198 kts | 324° |
| 2026-05-07 19:50 | -32.86442 | -60.57292 | 3685 ft | 197 kts | 324° |
| 2026-05-07 19:50 | -32.85192 | -60.58035 | 3535 ft | 197 kts | 324° |
| 2026-05-07 19:50 | -32.83946 | -60.58775 | 3384 ft | 197 kts | 324° |
| 2026-05-07 19:50 | -32.82721 | -60.59502 | 3247 ft | 197 kts | 324° |
| 2026-05-07 19:51 | -32.81485 | -60.60235 | 3107 ft | 197 kts | 324° |
| 2026-05-07 19:51 | -32.80254 | -60.60966 | 2991 ft | 195 kts | 324° |
| 2026-05-07 19:51 | -32.79046 | -60.61680 | 3010 ft | 189 kts | 324° |
| 2026-05-07 19:51 | -32.77885 | -60.62367 | 3011 ft | 185 kts | 324° |
| 2026-05-07 19:52 | -32.76705 | -60.63068 | 3014 ft | 182 kts | 324° |
| 2026-05-07 19:52 | -32.75548 | -60.63753 | 3014 ft | 181 kts | 323° |
| 2026-05-07 19:52 | -32.74450 | -60.64495 | 2999 ft | 171 kts | 306° |
| 2026-05-07 19:52 | -32.73924 | -60.65663 | 3020 ft | 153 kts | 276° |
| 2026-05-07 19:53 | -32.73689 | -60.66948 | 3030 ft | 152 kts | 273° |
| 2026-05-07 19:53 | -32.73490 | -60.68239 | 3031 ft | 152 kts | 272° |
| 2026-05-07 19:53 | -32.73301 | -60.69546 | 3023 ft | 153 kts | 272° |
| 2026-05-07 19:53 | -32.73113 | -60.70860 | 3021 ft | 152 kts | 271° |
| 2026-05-07 19:54 | -32.72931 | -60.72147 | 3015 ft | 153 kts | 271° |
| 2026-05-07 19:54 | -32.72863 | -60.73344 | 2874 ft | 140 kts | 252° |
| 2026-05-07 19:54 | -32.73396 | -60.74258 | 2731 ft | 131 kts | 217° |
| 2026-05-07 19:54 | -32.74261 | -60.74691 | 2590 ft | 129 kts | 204° |
| 2026-05-07 19:55 | -32.75123 | -60.74974 | 2458 ft | 128 kts | 199° |
| 2026-05-07 19:55 | -32.76007 | -60.75234 | 2308 ft | 127 kts | 199° |
| 2026-05-07 19:55 | -32.76902 | -60.75442 | 2156 ft | 127 kts | 198° |
| 2026-05-07 19:55 | -32.77773 | -60.75639 | 2011 ft | 127 kts | 197° |
| 2026-05-07 19:56 | -32.78607 | -60.75824 | 2016 ft | 116 kts | 198° |
| 2026-05-07 19:56 | -32.79353 | -60.75986 | 1960 ft | 100 kts | 199° |
| 2026-05-07 19:56 | -32.80011 | -60.76133 | 1866 ft | 96 kts | 199° |
| 2026-05-07 19:56 | -32.80677 | -60.76289 | 1746 ft | 96 kts | 200° |
| 2026-05-07 19:57 | -32.81358 | -60.76445 | 1618 ft | 97 kts | 199° |
| 2026-05-07 19:57 | -32.82024 | -60.76596 | 1484 ft | 95 kts | 199° |
| 2026-05-07 19:57 | -32.82679 | -60.76744 | 1356 ft | 95 kts | 198° |
| 2026-05-07 19:57 | -32.83347 | -60.76894 | 1232 ft | 95 kts | 199° |
| 2026-05-07 19:58 | -32.84007 | -60.77042 | 1105 ft | 95 kts | 199° |
| 2026-05-07 19:58 | -32.84662 | -60.77189 | 980 ft | 96 kts | 199° |
| 2026-05-07 19:58 | -32.85329 | -60.77339 | 848 ft | 97 kts | 199° |
| 2026-05-07 19:58 | -32.86007 | -60.77492 | 716 ft | 97 kts | 199° |
| 2026-05-07 19:59 | -32.86688 | -60.77645 | 587 ft | 99 kts | 198° |
| 2026-05-07 19:59 | -32.87376 | -60.77800 | 453 ft | 99 kts | 199° |
| 2026-05-07 19:59 | -32.88062 | -60.77954 | 320 ft | 100 kts | 199° |
| 2026-05-07 19:59 | -32.88748 | -60.78106 | 185 ft | 101 kts | 197° |
| 2026-05-07 20:00 | -32.89438 | -60.78260 | 90 ft | 92 kts | 197° |
| 2026-05-07 20:00 | -32.90011 | -60.78389 | 87 ft | 73 kts | 192° |
| 2026-05-07 20:00 | -32.90465 | -60.78493 | 87 ft | 59 kts | 195° |
| 2026-05-07 20:00 | -32.90803 | -60.78560 | 87 ft | 28 kts | 186° |
| 2026-05-07 20:01 | -32.90968 | -60.78538 | 87 ft | 13 kts | 162° |
| 2026-05-07 20:01 | -32.90991 | -60.78527 | 87 ft | 0 kts | 156° |
| 2026-05-07 20:02 | -32.90995 | -60.78525 | 87 ft | 2 kts | 157° |
| 2026-05-07 20:02 | -32.91031 | -60.78507 | 87 ft | 7 kts | 158° |
| 2026-05-07 20:02 | -32.91094 | -60.78466 | 87 ft | 11 kts | 147° |
| 2026-05-07 20:02 | -32.91175 | -60.78392 | 87 ft | 15 kts | 142° |
| 2026-05-07 20:03 | -32.91274 | -60.78300 | 87 ft | 18 kts | 143° |
| 2026-05-07 20:03 | -32.91389 | -60.78193 | 87 ft | 19 kts | 141° |
| 2026-05-07 20:03 | -32.91450 | -60.78123 | 87 ft | 10 kts | 109° |
| 2026-05-07 20:03 | -32.91475 | -60.78045 | 87 ft | 4 kts | 110° |
| 2026-05-07 20:04 | -32.91478 | -60.78034 | 87 ft | 1 kts | 111° |
| 2026-05-07 20:04 | -32.91478 | -60.78033 | 87 ft | 0 kts | 112° |